sensor_id;sensor_type;location;lat;lon;timestamp;temperature;humidity
51725;DHT22;37801;53.224;6.552;2023-05-07T00:01:40;12.30;99.90
51725;DHT22;37801;53.224;6.552;2023-05-07T00:04:06;12.20;99.90
51725;DHT22;37801;53.224;6.552;2023-05-07T00:06:33;12.30;99.90
51725;DHT22;37801;53.224;6.552;2023-05-07T00:08:59;12.20;99.90
51725;DHT22;37801;53.224;6.552;2023-05-07T00:11:25;12.20;99.90
51725;DHT22;37801;53.224;6.552;2023-05-07T00:13:51;12.20;99.90
51725;DHT22;37801;53.224;6.552;2023-05-07T00:16:17;12.20;99.90
51725;DHT22;37801;53.224;6.552;2023-05-07T00:18:42;12.20;99.90
51725;DHT22;37801;53.224;6.552;2023-05-07T00:21:08;12.10;99.90
51725;DHT22;37801;53.224;6.552;2023-05-07T00:23:34;12.10;99.90
51725;DHT22;37801;53.224;6.552;2023-05-07T00:26:00;12.20;99.90
51725;DHT22;37801;53.224;6.552;2023-05-07T00:28:25;12.10;99.90
51725;DHT22;37801;53.224;6.552;2023-05-07T00:30:51;12.10;99.90
51725;DHT22;37801;53.224;6.552;2023-05-07T00:33:17;12.10;99.90
51725;DHT22;37801;53.224;6.552;2023-05-07T00:35:43;12.00;99.90
51725;DHT22;37801;53.224;6.552;2023-05-07T00:38:09;12.10;99.90
51725;DHT22;37801;53.224;6.552;2023-05-07T00:40:35;12.10;99.90
51725;DHT22;37801;53.224;6.552;2023-05-07T00:43:01;12.10;99.90
51725;DHT22;37801;53.224;6.552;2023-05-07T00:45:27;12.00;99.90
51725;DHT22;37801;53.224;6.552;2023-05-07T00:47:57;12.10;99.90
51725;DHT22;37801;53.224;6.552;2023-05-07T00:50:24;12.10;99.90
51725;DHT22;37801;53.224;6.552;2023-05-07T00:52:50;12.10;99.90
51725;DHT22;37801;53.224;6.552;2023-05-07T00:55:16;12.00;99.90
51725;DHT22;37801;53.224;6.552;2023-05-07T00:57:42;12.00;99.90
51725;DHT22;37801;53.224;6.552;2023-05-07T01:00:09;12.00;99.90
51725;DHT22;37801;53.224;6.552;2023-05-07T01:02:35;12.00;99.90
51725;DHT22;37801;53.224;6.552;2023-05-07T01:05:03;11.90;99.90
51725;DHT22;37801;53.224;6.552;2023-05-07T01:07:32;12.00;99.90
51725;DHT22;37801;53.224;6.552;2023-05-07T01:09:58;12.00;99.90
51725;DHT22;37801;53.224;6.552;2023-05-07T01:12:25;11.90;99.90
51725;DHT22;37801;53.224;6.552;2023-05-07T01:14:52;11.90;99.90
51725;DHT22;37801;53.224;6.552;2023-05-07T01:17:18;11.90;99.90
51725;DHT22;37801;53.224;6.552;2023-05-07T01:19:43;11.90;99.90
51725;DHT22;37801;53.224;6.552;2023-05-07T01:22:10;11.90;99.90
51725;DHT22;37801;53.224;6.552;2023-05-07T01:24:37;11.90;99.90
51725;DHT22;37801;53.224;6.552;2023-05-07T01:27:03;11.90;99.90
51725;DHT22;37801;53.224;6.552;2023-05-07T01:29:29;11.90;99.90
51725;DHT22;37801;53.224;6.552;2023-05-07T01:32:00;11.90;99.90
51725;DHT22;37801;53.224;6.552;2023-05-07T01:34:28;11.90;99.90
51725;DHT22;37801;53.224;6.552;2023-05-07T01:36:56;11.90;99.90
51725;DHT22;37801;53.224;6.552;2023-05-07T01:39:25;11.90;99.90
51725;DHT22;37801;53.224;6.552;2023-05-07T01:41:56;11.80;99.90
51725;DHT22;37801;53.224;6.552;2023-05-07T01:44:22;11.80;99.90
51725;DHT22;37801;53.224;6.552;2023-05-07T01:46:49;11.80;99.90
51725;DHT22;37801;53.224;6.552;2023-05-07T01:49:16;11.80;99.90
51725;DHT22;37801;53.224;6.552;2023-05-07T01:51:42;11.70;99.90
51725;DHT22;37801;53.224;6.552;2023-05-07T01:54:08;11.80;99.90
51725;DHT22;37801;53.224;6.552;2023-05-07T01:56:34;11.80;99.90
51725;DHT22;37801;53.224;6.552;2023-05-07T01:59:00;11.70;99.90
51725;DHT22;37801;53.224;6.552;2023-05-07T02:01:27;11.70;99.90
51725;DHT22;37801;53.224;6.552;2023-05-07T02:03:53;11.80;99.90
51725;DHT22;37801;53.224;6.552;2023-05-07T02:06:19;11.70;99.90
51725;DHT22;37801;53.224;6.552;2023-05-07T02:08:46;11.60;99.90
51725;DHT22;37801;53.224;6.552;2023-05-07T02:11:12;11.70;99.90
51725;DHT22;37801;53.224;6.552;2023-05-07T02:13:37;11.70;99.90
51725;DHT22;37801;53.224;6.552;2023-05-07T02:16:03;11.70;99.90
51725;DHT22;37801;53.224;6.552;2023-05-07T02:18:29;11.70;99.90
51725;DHT22;37801;53.224;6.552;2023-05-07T02:20:55;11.70;99.90
51725;DHT22;37801;53.224;6.552;2023-05-07T02:23:20;11.70;99.90
51725;DHT22;37801;53.224;6.552;2023-05-07T02:25:46;11.70;99.90
51725;DHT22;37801;53.224;6.552;2023-05-07T02:28:12;11.70;99.90
51725;DHT22;37801;53.224;6.552;2023-05-07T02:30:38;11.70;99.90
51725;DHT22;37801;53.224;6.552;2023-05-07T02:33:04;11.60;99.90
51725;DHT22;37801;53.224;6.552;2023-05-07T02:35:30;11.60;99.90
51725;DHT22;37801;53.224;6.552;2023-05-07T02:37:56;11.70;99.90
51725;DHT22;37801;53.224;6.552;2023-05-07T02:40:22;11.60;99.90
51725;DHT22;37801;53.224;6.552;2023-05-07T02:42:47;11.60;99.90
51725;DHT22;37801;53.224;6.552;2023-05-07T02:45:13;11.60;99.90
51725;DHT22;37801;53.224;6.552;2023-05-07T02:47:40;11.60;99.90
51725;DHT22;37801;53.224;6.552;2023-05-07T02:50:06;11.70;99.90
51725;DHT22;37801;53.224;6.552;2023-05-07T02:52:32;11.60;99.90
51725;DHT22;37801;53.224;6.552;2023-05-07T02:54:57;11.70;99.90
51725;DHT22;37801;53.224;6.552;2023-05-07T02:57:23;11.70;99.90
51725;DHT22;37801;53.224;6.552;2023-05-07T02:59:49;11.60;99.90
51725;DHT22;37801;53.224;6.552;2023-05-07T03:02:15;11.70;99.90
51725;DHT22;37801;53.224;6.552;2023-05-07T03:04:40;11.60;99.90
51725;DHT22;37801;53.224;6.552;2023-05-07T03:07:06;11.60;99.90
51725;DHT22;37801;53.224;6.552;2023-05-07T03:09:32;11.60;99.90
51725;DHT22;37801;53.224;6.552;2023-05-07T03:11:58;11.60;99.90
51725;DHT22;37801;53.224;6.552;2023-05-07T03:14:23;11.60;99.90
51725;DHT22;37801;53.224;6.552;2023-05-07T03:16:49;11.60;99.90
51725;DHT22;37801;53.224;6.552;2023-05-07T03:19:15;11.60;99.90
51725;DHT22;37801;53.224;6.552;2023-05-07T03:21:41;11.60;99.90
51725;DHT22;37801;53.224;6.552;2023-05-07T03:24:07;11.60;99.90
51725;DHT22;37801;53.224;6.552;2023-05-07T03:26:32;11.60;99.90
51725;DHT22;37801;53.224;6.552;2023-05-07T03:28:58;11.60;99.90
51725;DHT22;37801;53.224;6.552;2023-05-07T03:31:24;11.60;99.90
51725;DHT22;37801;53.224;6.552;2023-05-07T03:33:55;11.50;99.90
51725;DHT22;37801;53.224;6.552;2023-05-07T03:36:21;11.50;99.90
51725;DHT22;37801;53.224;6.552;2023-05-07T03:38:48;11.50;99.90
51725;DHT22;37801;53.224;6.552;2023-05-07T03:41:14;11.50;99.90
51725;DHT22;37801;53.224;6.552;2023-05-07T03:43:39;11.50;99.90
51725;DHT22;37801;53.224;6.552;2023-05-07T03:46:05;11.50;99.90
51725;DHT22;37801;53.224;6.552;2023-05-07T03:48:31;11.50;99.90
51725;DHT22;37801;53.224;6.552;2023-05-07T03:51:00;11.40;99.90
51725;DHT22;37801;53.224;6.552;2023-05-07T03:53:25;11.50;99.90
51725;DHT22;37801;53.224;6.552;2023-05-07T03:55:51;11.40;99.90
51725;DHT22;37801;53.224;6.552;2023-05-07T03:58:17;11.40;99.90
51725;DHT22;37801;53.224;6.552;2023-05-07T04:00:42;11.30;99.90
51725;DHT22;37801;53.224;6.552;2023-05-07T04:03:08;11.30;99.90
51725;DHT22;37801;53.224;6.552;2023-05-07T04:05:34;11.20;99.90
51725;DHT22;37801;53.224;6.552;2023-05-07T04:08:00;11.30;99.90
51725;DHT22;37801;53.224;6.552;2023-05-07T04:10:26;11.30;99.90
51725;DHT22;37801;53.224;6.552;2023-05-07T04:12:53;11.30;99.90
51725;DHT22;37801;53.224;6.552;2023-05-07T04:15:19;11.30;99.90
51725;DHT22;37801;53.224;6.552;2023-05-07T04:17:45;11.40;99.90
51725;DHT22;37801;53.224;6.552;2023-05-07T04:20:15;11.30;99.90
51725;DHT22;37801;53.224;6.552;2023-05-07T04:22:41;11.30;99.90
51725;DHT22;37801;53.224;6.552;2023-05-07T04:25:07;11.30;99.90
51725;DHT22;37801;53.224;6.552;2023-05-07T04:27:35;11.30;99.90
51725;DHT22;37801;53.224;6.552;2023-05-07T04:30:02;11.30;99.90
51725;DHT22;37801;53.224;6.552;2023-05-07T04:32:28;11.30;99.90
51725;DHT22;37801;53.224;6.552;2023-05-07T04:34:55;11.30;99.90
51725;DHT22;37801;53.224;6.552;2023-05-07T04:37:21;11.30;99.90
51725;DHT22;37801;53.224;6.552;2023-05-07T04:39:47;11.30;99.90
51725;DHT22;37801;53.224;6.552;2023-05-07T04:42:16;11.20;99.90
51725;DHT22;37801;53.224;6.552;2023-05-07T04:44:44;11.20;99.90
51725;DHT22;37801;53.224;6.552;2023-05-07T04:47:10;11.20;99.90
51725;DHT22;37801;53.224;6.552;2023-05-07T04:49:37;11.20;99.90
51725;DHT22;37801;53.224;6.552;2023-05-07T04:52:03;11.20;99.90
51725;DHT22;37801;53.224;6.552;2023-05-07T04:54:29;11.10;99.90
51725;DHT22;37801;53.224;6.552;2023-05-07T04:56:55;11.10;99.90
51725;DHT22;37801;53.224;6.552;2023-05-07T04:59:21;11.20;99.90
51725;DHT22;37801;53.224;6.552;2023-05-07T05:01:47;11.20;99.90
51725;DHT22;37801;53.224;6.552;2023-05-07T05:04:13;11.10;99.90
51725;DHT22;37801;53.224;6.552;2023-05-07T05:06:39;11.10;99.90
51725;DHT22;37801;53.224;6.552;2023-05-07T05:09:04;11.20;99.90
51725;DHT22;37801;53.224;6.552;2023-05-07T05:11:31;11.20;99.90
51725;DHT22;37801;53.224;6.552;2023-05-07T05:13:57;11.20;99.90
51725;DHT22;37801;53.224;6.552;2023-05-07T05:16:22;11.20;99.90
51725;DHT22;37801;53.224;6.552;2023-05-07T05:18:48;11.10;99.90
51725;DHT22;37801;53.224;6.552;2023-05-07T05:21:14;11.20;99.90
51725;DHT22;37801;53.224;6.552;2023-05-07T05:23:40;11.20;99.90
51725;DHT22;37801;53.224;6.552;2023-05-07T05:26:05;11.20;99.90
51725;DHT22;37801;53.224;6.552;2023-05-07T05:28:31;11.20;99.90
51725;DHT22;37801;53.224;6.552;2023-05-07T05:30:57;11.20;99.90
51725;DHT22;37801;53.224;6.552;2023-05-07T05:33:22;11.20;99.90
51725;DHT22;37801;53.224;6.552;2023-05-07T05:35:49;11.30;99.90
51725;DHT22;37801;53.224;6.552;2023-05-07T05:38:15;11.30;99.90
51725;DHT22;37801;53.224;6.552;2023-05-07T05:40:40;11.20;99.90
51725;DHT22;37801;53.224;6.552;2023-05-07T05:43:06;11.20;99.90
51725;DHT22;37801;53.224;6.552;2023-05-07T05:45:32;11.20;99.90
51725;DHT22;37801;53.224;6.552;2023-05-07T05:47:57;11.20;99.90
51725;DHT22;37801;53.224;6.552;2023-05-07T05:50:23;11.20;99.90
51725;DHT22;37801;53.224;6.552;2023-05-07T05:52:49;11.30;99.90
51725;DHT22;37801;53.224;6.552;2023-05-07T05:55:15;11.20;99.90
51725;DHT22;37801;53.224;6.552;2023-05-07T05:57:40;11.20;99.90
51725;DHT22;37801;53.224;6.552;2023-05-07T06:00:07;11.20;99.90
51725;DHT22;37801;53.224;6.552;2023-05-07T06:02:33;11.30;99.90
51725;DHT22;37801;53.224;6.552;2023-05-07T06:04:59;11.30;99.90
51725;DHT22;37801;53.224;6.552;2023-05-07T06:07:25;11.30;99.90
51725;DHT22;37801;53.224;6.552;2023-05-07T06:09:50;11.30;99.90
51725;DHT22;37801;53.224;6.552;2023-05-07T06:12:16;11.30;99.90
51725;DHT22;37801;53.224;6.552;2023-05-07T06:14:45;11.30;99.90
51725;DHT22;37801;53.224;6.552;2023-05-07T06:17:10;11.30;99.90
51725;DHT22;37801;53.224;6.552;2023-05-07T06:19:36;11.40;99.90
51725;DHT22;37801;53.224;6.552;2023-05-07T06:22:02;11.40;99.90
51725;DHT22;37801;53.224;6.552;2023-05-07T06:24:28;11.40;99.90
51725;DHT22;37801;53.224;6.552;2023-05-07T06:26:54;11.50;99.90
51725;DHT22;37801;53.224;6.552;2023-05-07T06:29:20;11.50;99.90
51725;DHT22;37801;53.224;6.552;2023-05-07T06:31:46;11.50;99.90
51725;DHT22;37801;53.224;6.552;2023-05-07T06:34:11;11.50;99.90
51725;DHT22;37801;53.224;6.552;2023-05-07T06:36:40;11.60;99.90
51725;DHT22;37801;53.224;6.552;2023-05-07T06:39:06;11.50;99.90
51725;DHT22;37801;53.224;6.552;2023-05-07T06:41:32;11.50;99.90
51725;DHT22;37801;53.224;6.552;2023-05-07T06:43:58;11.50;99.90
51725;DHT22;37801;53.224;6.552;2023-05-07T06:46:23;11.60;99.90
51725;DHT22;37801;53.224;6.552;2023-05-07T06:48:49;11.50;99.90
51725;DHT22;37801;53.224;6.552;2023-05-07T06:51:15;11.60;99.90
51725;DHT22;37801;53.224;6.552;2023-05-07T06:53:40;11.50;99.90
51725;DHT22;37801;53.224;6.552;2023-05-07T06:56:06;11.60;99.90
51725;DHT22;37801;53.224;6.552;2023-05-07T06:58:32;11.50;99.90
51725;DHT22;37801;53.224;6.552;2023-05-07T07:00:58;11.50;99.90
51725;DHT22;37801;53.224;6.552;2023-05-07T07:03:24;11.60;99.90
51725;DHT22;37801;53.224;6.552;2023-05-07T07:05:53;11.60;99.90
51725;DHT22;37801;53.224;6.552;2023-05-07T07:08:19;11.60;99.90
51725;DHT22;37801;53.224;6.552;2023-05-07T07:10:47;11.60;99.90
51725;DHT22;37801;53.224;6.552;2023-05-07T07:13:13;11.60;99.90
51725;DHT22;37801;53.224;6.552;2023-05-07T07:15:38;11.60;99.90
51725;DHT22;37801;53.224;6.552;2023-05-07T07:18:04;11.60;99.90
51725;DHT22;37801;53.224;6.552;2023-05-07T07:20:30;11.60;99.90
51725;DHT22;37801;53.224;6.552;2023-05-07T07:22:56;11.60;99.90
51725;DHT22;37801;53.224;6.552;2023-05-07T07:25:21;11.60;99.90
51725;DHT22;37801;53.224;6.552;2023-05-07T07:27:47;11.60;99.90
51725;DHT22;37801;53.224;6.552;2023-05-07T07:30:13;11.60;99.90
51725;DHT22;37801;53.224;6.552;2023-05-07T07:32:39;11.60;99.90
51725;DHT22;37801;53.224;6.552;2023-05-07T07:35:05;11.60;99.90
51725;DHT22;37801;53.224;6.552;2023-05-07T07:37:30;11.70;99.90
51725;DHT22;37801;53.224;6.552;2023-05-07T07:39:56;11.60;99.90
51725;DHT22;37801;53.224;6.552;2023-05-07T07:42:22;11.60;99.90
51725;DHT22;37801;53.224;6.552;2023-05-07T07:44:48;11.70;99.90
51725;DHT22;37801;53.224;6.552;2023-05-07T07:47:14;11.80;99.90
51725;DHT22;37801;53.224;6.552;2023-05-07T07:49:40;11.70;99.90
51725;DHT22;37801;53.224;6.552;2023-05-07T07:52:05;11.80;99.90
51725;DHT22;37801;53.224;6.552;2023-05-07T07:54:31;11.70;99.90
51725;DHT22;37801;53.224;6.552;2023-05-07T07:56:58;11.80;99.90
51725;DHT22;37801;53.224;6.552;2023-05-07T07:59:23;11.80;99.90
51725;DHT22;37801;53.224;6.552;2023-05-07T08:01:49;11.80;99.90
51725;DHT22;37801;53.224;6.552;2023-05-07T08:04:15;11.90;99.90
51725;DHT22;37801;53.224;6.552;2023-05-07T08:06:41;11.90;99.90
51725;DHT22;37801;53.224;6.552;2023-05-07T08:09:07;11.90;99.90
51725;DHT22;37801;53.224;6.552;2023-05-07T08:11:34;11.90;99.90
51725;DHT22;37801;53.224;6.552;2023-05-07T08:14:00;12.00;99.90
51725;DHT22;37801;53.224;6.552;2023-05-07T08:16:25;12.10;99.90
51725;DHT22;37801;53.224;6.552;2023-05-07T08:18:51;12.20;99.90
51725;DHT22;37801;53.224;6.552;2023-05-07T08:21:17;12.20;99.90
51725;DHT22;37801;53.224;6.552;2023-05-07T08:23:42;12.20;99.90
51725;DHT22;37801;53.224;6.552;2023-05-07T08:26:08;12.20;99.90
51725;DHT22;37801;53.224;6.552;2023-05-07T08:28:34;12.30;99.90
51725;DHT22;37801;53.224;6.552;2023-05-07T08:31:00;12.30;99.90
51725;DHT22;37801;53.224;6.552;2023-05-07T08:33:26;12.40;99.90
51725;DHT22;37801;53.224;6.552;2023-05-07T08:35:52;12.30;99.90
51725;DHT22;37801;53.224;6.552;2023-05-07T08:38:18;12.40;99.90
51725;DHT22;37801;53.224;6.552;2023-05-07T08:40:44;12.40;99.90
51725;DHT22;37801;53.224;6.552;2023-05-07T08:43:12;12.50;99.90
51725;DHT22;37801;53.224;6.552;2023-05-07T08:45:39;12.60;99.90
51725;DHT22;37801;53.224;6.552;2023-05-07T08:48:14;12.60;99.90
51725;DHT22;37801;53.224;6.552;2023-05-07T08:50:39;12.60;99.90
51725;DHT22;37801;53.224;6.552;2023-05-07T08:53:05;12.60;99.90
51725;DHT22;37801;53.224;6.552;2023-05-07T08:55:31;12.60;99.90
51725;DHT22;37801;53.224;6.552;2023-05-07T08:57:59;12.70;99.90
51725;DHT22;37801;53.224;6.552;2023-05-07T09:00:24;12.80;99.90
51725;DHT22;37801;53.224;6.552;2023-05-07T09:02:51;12.80;99.90
51725;DHT22;37801;53.224;6.552;2023-05-07T09:05:17;12.80;99.90
51725;DHT22;37801;53.224;6.552;2023-05-07T09:07:43;12.90;99.90
51725;DHT22;37801;53.224;6.552;2023-05-07T09:10:09;13.00;99.90
51725;DHT22;37801;53.224;6.552;2023-05-07T09:12:35;13.00;99.90
51725;DHT22;37801;53.224;6.552;2023-05-07T09:15:01;13.10;99.90
51725;DHT22;37801;53.224;6.552;2023-05-07T09:17:28;13.20;99.90
51725;DHT22;37801;53.224;6.552;2023-05-07T09:19:54;13.20;99.90
51725;DHT22;37801;53.224;6.552;2023-05-07T09:22:20;13.30;99.90
51725;DHT22;37801;53.224;6.552;2023-05-07T09:24:51;13.30;99.90
51725;DHT22;37801;53.224;6.552;2023-05-07T09:27:17;13.40;99.90
51725;DHT22;37801;53.224;6.552;2023-05-07T09:29:44;13.40;99.90
51725;DHT22;37801;53.224;6.552;2023-05-07T09:32:10;13.40;99.90
51725;DHT22;37801;53.224;6.552;2023-05-07T09:34:36;13.60;99.90
51725;DHT22;37801;53.224;6.552;2023-05-07T09:37:03;13.70;99.90
51725;DHT22;37801;53.224;6.552;2023-05-07T09:39:46;13.70;99.90
51725;DHT22;37801;53.224;6.552;2023-05-07T09:42:12;13.80;99.90
51725;DHT22;37801;53.224;6.552;2023-05-07T09:44:40;13.80;86.20
51725;DHT22;37801;53.224;6.552;2023-05-07T09:47:07;13.90;28.30
51725;DHT22;37801;53.224;6.552;2023-05-07T09:49:37;13.90;1.00
51725;DHT22;37801;53.224;6.552;2023-05-07T09:52:05;14.00;1.00
51725;DHT22;37801;53.224;6.552;2023-05-07T09:54:35;14.10;1.00
51725;DHT22;37801;53.224;6.552;2023-05-07T09:57:04;14.10;1.00
51725;DHT22;37801;53.224;6.552;2023-05-07T09:59:31;14.20;1.00
51725;DHT22;37801;53.224;6.552;2023-05-07T10:01:59;14.30;1.00
51725;DHT22;37801;53.224;6.552;2023-05-07T10:04:28;14.30;1.00
51725;DHT22;37801;53.224;6.552;2023-05-07T10:06:55;14.30;1.00
51725;DHT22;37801;53.224;6.552;2023-05-07T10:09:22;14.30;99.90
51725;DHT22;37801;53.224;6.552;2023-05-07T10:11:52;14.30;99.90
51725;DHT22;37801;53.224;6.552;2023-05-07T10:14:20;14.20;99.90
51725;DHT22;37801;53.224;6.552;2023-05-07T10:16:47;14.20;99.90
51725;DHT22;37801;53.224;6.552;2023-05-07T10:19:14;14.20;99.90
51725;DHT22;37801;53.224;6.552;2023-05-07T10:21:48;14.20;99.90
51725;DHT22;37801;53.224;6.552;2023-05-07T10:24:22;14.20;99.90
51725;DHT22;37801;53.224;6.552;2023-05-07T10:26:52;14.20;99.90
51725;DHT22;37801;53.224;6.552;2023-05-07T10:32:39;14.30;1.00
51725;DHT22;37801;53.224;6.552;2023-05-07T10:35:14;14.40;99.90
51725;DHT22;37801;53.224;6.552;2023-05-07T10:37:41;14.30;99.90
51725;DHT22;37801;53.224;6.552;2023-05-07T10:40:09;14.30;99.90
51725;DHT22;37801;53.224;6.552;2023-05-07T10:42:35;14.40;99.90
51725;DHT22;37801;53.224;6.552;2023-05-07T10:45:16;14.40;99.90
51725;DHT22;37801;53.224;6.552;2023-05-07T10:48:20;14.40;99.90
51725;DHT22;37801;53.224;6.552;2023-05-07T10:50:46;14.50;1.00
51725;DHT22;37801;53.224;6.552;2023-05-07T10:55:47;14.50;99.90
51725;DHT22;37801;53.224;6.552;2023-05-07T10:58:29;14.60;99.90
51725;DHT22;37801;53.224;6.552;2023-05-07T11:00:59;14.70;99.90
51725;DHT22;37801;53.224;6.552;2023-05-07T11:03:28;14.90;99.90
51725;DHT22;37801;53.224;6.552;2023-05-07T11:06:13;14.90;99.90
51725;DHT22;37801;53.224;6.552;2023-05-07T11:08:58;15.00;99.90
51725;DHT22;37801;53.224;6.552;2023-05-07T11:11:59;15.20;99.90
51725;DHT22;37801;53.224;6.552;2023-05-07T11:14:54;15.30;99.90
51725;DHT22;37801;53.224;6.552;2023-05-07T11:17:20;15.20;99.90
51725;DHT22;37801;53.224;6.552;2023-05-07T11:19:56;15.30;99.90
51725;DHT22;37801;53.224;6.552;2023-05-07T11:24:59;15.30;99.90
51725;DHT22;37801;53.224;6.552;2023-05-07T11:27:26;15.30;99.90
51725;DHT22;37801;53.224;6.552;2023-05-07T11:29:52;15.30;98.30
51725;DHT22;37801;53.224;6.552;2023-05-07T11:32:25;15.20;39.40
51725;DHT22;37801;53.224;6.552;2023-05-07T11:34:52;15.20;94.50
51725;DHT22;37801;53.224;6.552;2023-05-07T11:37:20;15.20;99.90
51725;DHT22;37801;53.224;6.552;2023-05-07T11:39:46;15.20;85.60
51725;DHT22;37801;53.224;6.552;2023-05-07T11:42:32;15.10;99.90
51725;DHT22;37801;53.224;6.552;2023-05-07T11:44:58;15.20;99.90
51725;DHT22;37801;53.224;6.552;2023-05-07T11:47:24;15.20;99.90
51725;DHT22;37801;53.224;6.552;2023-05-07T11:49:54;15.20;99.90
51725;DHT22;37801;53.224;6.552;2023-05-07T11:52:22;15.20;99.90
51725;DHT22;37801;53.224;6.552;2023-05-07T11:54:52;15.20;99.90
51725;DHT22;37801;53.224;6.552;2023-05-07T11:57:18;15.30;99.90
51725;DHT22;37801;53.224;6.552;2023-05-07T11:59:45;15.30;99.90
51725;DHT22;37801;53.224;6.552;2023-05-07T12:02:14;15.30;99.90
51725;DHT22;37801;53.224;6.552;2023-05-07T12:04:40;15.30;99.90
51725;DHT22;37801;53.224;6.552;2023-05-07T12:07:16;15.40;99.90
51725;DHT22;37801;53.224;6.552;2023-05-07T12:09:43;15.40;99.90
51725;DHT22;37801;53.224;6.552;2023-05-07T12:12:09;15.50;99.90
51725;DHT22;37801;53.224;6.552;2023-05-07T12:14:53;15.60;99.90
51725;DHT22;37801;53.224;6.552;2023-05-07T12:17:18;15.60;99.90
51725;DHT22;37801;53.224;6.552;2023-05-07T12:19:45;15.70;99.90
51725;DHT22;37801;53.224;6.552;2023-05-07T12:22:11;15.70;18.30
51725;DHT22;37801;53.224;6.552;2023-05-07T12:24:47;15.60;19.20
51725;DHT22;37801;53.224;6.552;2023-05-07T12:27:17;15.60;70.30
51725;DHT22;37801;53.224;6.552;2023-05-07T12:29:50;15.50;95.00
51725;DHT22;37801;53.224;6.552;2023-05-07T12:32:17;15.60;93.60
51725;DHT22;37801;53.224;6.552;2023-05-07T12:34:44;15.60;99.90
51725;DHT22;37801;53.224;6.552;2023-05-07T12:37:10;15.70;99.90
51725;DHT22;37801;53.224;6.552;2023-05-07T12:39:36;15.70;99.30
51725;DHT22;37801;53.224;6.552;2023-05-07T12:42:02;15.80;99.90
51725;DHT22;37801;53.224;6.552;2023-05-07T12:44:33;15.80;99.90
51725;DHT22;37801;53.224;6.552;2023-05-07T12:47:02;15.90;37.80
51725;DHT22;37801;53.224;6.552;2023-05-07T12:49:28;15.90;1.00
51725;DHT22;37801;53.224;6.552;2023-05-07T12:51:54;16.00;1.00
51725;DHT22;37801;53.224;6.552;2023-05-07T12:54:30;16.00;1.00
51725;DHT22;37801;53.224;6.552;2023-05-07T12:57:07;16.10;1.00
51725;DHT22;37801;53.224;6.552;2023-05-07T12:59:37;16.10;1.00
51725;DHT22;37801;53.224;6.552;2023-05-07T13:02:04;16.20;1.00
51725;DHT22;37801;53.224;6.552;2023-05-07T13:04:30;16.20;1.00
51725;DHT22;37801;53.224;6.552;2023-05-07T13:06:56;16.30;1.00
51725;DHT22;37801;53.224;6.552;2023-05-07T13:09:21;16.40;1.00
51725;DHT22;37801;53.224;6.552;2023-05-07T13:11:47;16.30;1.00
51725;DHT22;37801;53.224;6.552;2023-05-07T13:14:13;16.30;1.00
51725;DHT22;37801;53.224;6.552;2023-05-07T13:16:38;16.40;1.00
51725;DHT22;37801;53.224;6.552;2023-05-07T13:19:04;16.50;1.00
51725;DHT22;37801;53.224;6.552;2023-05-07T13:21:30;16.60;1.00
51725;DHT22;37801;53.224;6.552;2023-05-07T13:23:58;16.70;1.00
51725;DHT22;37801;53.224;6.552;2023-05-07T13:26:24;16.80;1.00
51725;DHT22;37801;53.224;6.552;2023-05-07T13:28:50;16.80;99.90
51725;DHT22;37801;53.224;6.552;2023-05-07T13:31:17;16.80;99.90
51725;DHT22;37801;53.224;6.552;2023-05-07T13:33:43;16.80;1.00
51725;DHT22;37801;53.224;6.552;2023-05-07T13:36:09;16.70;99.90
51725;DHT22;37801;53.224;6.552;2023-05-07T13:38:35;16.70;99.90
51725;DHT22;37801;53.224;6.552;2023-05-07T13:41:01;16.70;99.90
51725;DHT22;37801;53.224;6.552;2023-05-07T13:43:26;16.80;99.90
51725;DHT22;37801;53.224;6.552;2023-05-07T13:45:52;16.70;99.90
51725;DHT22;37801;53.224;6.552;2023-05-07T13:48:18;16.70;99.90
51725;DHT22;37801;53.224;6.552;2023-05-07T13:50:44;16.70;99.90
51725;DHT22;37801;53.224;6.552;2023-05-07T13:53:10;16.60;99.90
51725;DHT22;37801;53.224;6.552;2023-05-07T13:55:36;16.50;99.90
51725;DHT22;37801;53.224;6.552;2023-05-07T13:58:02;16.50;99.90
51725;DHT22;37801;53.224;6.552;2023-05-07T14:00:29;16.50;99.90
51725;DHT22;37801;53.224;6.552;2023-05-07T14:02:56;16.50;99.90
51725;DHT22;37801;53.224;6.552;2023-05-07T14:05:22;16.60;99.90
51725;DHT22;37801;53.224;6.552;2023-05-07T14:07:53;16.60;99.90
51725;DHT22;37801;53.224;6.552;2023-05-07T14:10:19;16.70;99.90
51725;DHT22;37801;53.224;6.552;2023-05-07T14:12:46;16.70;99.90
51725;DHT22;37801;53.224;6.552;2023-05-07T14:15:12;16.60;99.90
51725;DHT22;37801;53.224;6.552;2023-05-07T14:17:37;16.60;99.90
51725;DHT22;37801;53.224;6.552;2023-05-07T14:20:04;16.60;99.90
51725;DHT22;37801;53.224;6.552;2023-05-07T14:22:31;16.60;99.90
51725;DHT22;37801;53.224;6.552;2023-05-07T14:24:57;16.60;99.90
51725;DHT22;37801;53.224;6.552;2023-05-07T14:27:23;16.70;99.90
51725;DHT22;37801;53.224;6.552;2023-05-07T14:29:48;16.70;99.90
51725;DHT22;37801;53.224;6.552;2023-05-07T14:32:20;16.70;99.90
51725;DHT22;37801;53.224;6.552;2023-05-07T14:34:46;16.70;99.90
51725;DHT22;37801;53.224;6.552;2023-05-07T14:37:12;16.80;83.70
51725;DHT22;37801;53.224;6.552;2023-05-07T14:39:38;16.90;99.90
51725;DHT22;37801;53.224;6.552;2023-05-07T14:42:03;17.00;56.70
51725;DHT22;37801;53.224;6.552;2023-05-07T14:44:29;17.10;11.10
51725;DHT22;37801;53.224;6.552;2023-05-07T14:46:56;17.10;85.00
51725;DHT22;37801;53.224;6.552;2023-05-07T14:49:22;17.10;1.00
51725;DHT22;37801;53.224;6.552;2023-05-07T14:51:48;17.20;74.60
51725;DHT22;37801;53.224;6.552;2023-05-07T14:54:14;17.10;1.00
51725;DHT22;37801;53.224;6.552;2023-05-07T14:56:40;17.20;11.70
51725;DHT22;37801;53.224;6.552;2023-05-07T14:59:07;17.20;1.00
51725;DHT22;37801;53.224;6.552;2023-05-07T15:01:35;17.20;1.00
51725;DHT22;37801;53.224;6.552;2023-05-07T15:04:02;17.20;1.00
51725;DHT22;37801;53.224;6.552;2023-05-07T15:06:28;17.30;1.00
51725;DHT22;37801;53.224;6.552;2023-05-07T15:08:54;17.30;1.00
51725;DHT22;37801;53.224;6.552;2023-05-07T15:11:20;17.30;1.00
51725;DHT22;37801;53.224;6.552;2023-05-07T15:13:46;17.30;1.00
51725;DHT22;37801;53.224;6.552;2023-05-07T15:16:12;17.30;1.00
51725;DHT22;37801;53.224;6.552;2023-05-07T15:18:38;17.40;1.00
51725;DHT22;37801;53.224;6.552;2023-05-07T15:21:04;17.40;1.00
51725;DHT22;37801;53.224;6.552;2023-05-07T15:23:30;17.40;1.00
51725;DHT22;37801;53.224;6.552;2023-05-07T15:25:56;17.40;1.00
51725;DHT22;37801;53.224;6.552;2023-05-07T15:28:22;17.40;1.00
51725;DHT22;37801;53.224;6.552;2023-05-07T15:30:49;17.40;1.00
51725;DHT22;37801;53.224;6.552;2023-05-07T15:33:15;17.40;1.00
51725;DHT22;37801;53.224;6.552;2023-05-07T15:35:41;17.40;1.00
51725;DHT22;37801;53.224;6.552;2023-05-07T15:38:07;17.40;1.00
51725;DHT22;37801;53.224;6.552;2023-05-07T15:40:34;17.40;1.00